sensor_id;sensor_type;location;lat;lon;timestamp;P1;durP1;ratioP1;P2;durP2;ratioP2
70455;SDS011;57916;51.996;5.180;2024-01-15T00:00:29;9.02;;;1.00;;
70455;SDS011;57916;51.996;5.180;2024-01-15T00:02:56;12.97;;;1.20;;
70455;SDS011;57916;51.996;5.180;2024-01-15T00:05:24;7.95;;;1.10;;
70455;SDS011;57916;51.996;5.180;2024-01-15T00:07:51;15.68;;;1.35;;
70455;SDS011;57916;51.996;5.180;2024-01-15T00:10:17;8.00;;;0.98;;
70455;SDS011;57916;51.996;5.180;2024-01-15T00:12:44;11.55;;;1.45;;
70455;SDS011;57916;51.996;5.180;2024-01-15T00:15:11;7.90;;;1.23;;
70455;SDS011;57916;51.996;5.180;2024-01-15T00:17:39;8.95;;;1.30;;
70455;SDS011;57916;51.996;5.180;2024-01-15T00:20:06;11.82;;;1.83;;
70455;SDS011;57916;51.996;5.180;2024-01-15T00:22:33;7.55;;;1.10;;
70455;SDS011;57916;51.996;5.180;2024-01-15T00:25:02;11.15;;;1.95;;
70455;SDS011;57916;51.996;5.180;2024-01-15T00:27:29;10.73;;;1.27;;
70455;SDS011;57916;51.996;5.180;2024-01-15T00:29:56;8.98;;;1.17;;
70455;SDS011;57916;51.996;5.180;2024-01-15T00:32:24;7.28;;;1.30;;
70455;SDS011;57916;51.996;5.180;2024-01-15T00:34:51;8.25;;;1.35;;
70455;SDS011;57916;51.996;5.180;2024-01-15T00:37:18;12.85;;;1.30;;
70455;SDS011;57916;51.996;5.180;2024-01-15T00:39:45;10.98;;;1.50;;
70455;SDS011;57916;51.996;5.180;2024-01-15T00:42:12;15.82;;;1.77;;
70455;SDS011;57916;51.996;5.180;2024-01-15T00:44:39;9.55;;;1.20;;
70455;SDS011;57916;51.996;5.180;2024-01-15T00:47:06;6.03;;;1.20;;
70455;SDS011;57916;51.996;5.180;2024-01-15T00:49:33;8.10;;;1.17;;
70455;SDS011;57916;51.996;5.180;2024-01-15T00:52:00;8.23;;;1.42;;
70455;SDS011;57916;51.996;5.180;2024-01-15T00:54:27;7.20;;;1.00;;
70455;SDS011;57916;51.996;5.180;2024-01-15T00:56:54;9.73;;;1.38;;
70455;SDS011;57916;51.996;5.180;2024-01-15T00:59:21;11.90;;;1.63;;
70455;SDS011;57916;51.996;5.180;2024-01-15T01:01:48;8.83;;;1.30;;
70455;SDS011;57916;51.996;5.180;2024-01-15T01:04:15;11.40;;;1.40;;
70455;SDS011;57916;51.996;5.180;2024-01-15T01:06:43;12.90;;;1.65;;
70455;SDS011;57916;51.996;5.180;2024-01-15T01:09:10;14.43;;;1.73;;
70455;SDS011;57916;51.996;5.180;2024-01-15T01:11:37;14.10;;;1.50;;
70455;SDS011;57916;51.996;5.180;2024-01-15T01:14:04;13.40;;;1.90;;
70455;SDS011;57916;51.996;5.180;2024-01-15T01:16:32;8.40;;;1.40;;
70455;SDS011;57916;51.996;5.180;2024-01-15T01:19:05;11.25;;;1.58;;
70455;SDS011;57916;51.996;5.180;2024-01-15T01:21:34;14.23;;;1.67;;
70455;SDS011;57916;51.996;5.180;2024-01-15T01:24:01;9.95;;;1.60;;
70455;SDS011;57916;51.996;5.180;2024-01-15T01:26:28;10.93;;;1.65;;
70455;SDS011;57916;51.996;5.180;2024-01-15T01:28:55;13.10;;;1.63;;
70455;SDS011;57916;51.996;5.180;2024-01-15T01:31:23;16.67;;;2.07;;
70455;SDS011;57916;51.996;5.180;2024-01-15T01:33:50;12.23;;;1.42;;
70455;SDS011;57916;51.996;5.180;2024-01-15T01:36:17;9.88;;;2.00;;
70455;SDS011;57916;51.996;5.180;2024-01-15T01:38:45;15.05;;;1.40;;
70455;SDS011;57916;51.996;5.180;2024-01-15T01:41:12;12.48;;;1.50;;
70455;SDS011;57916;51.996;5.180;2024-01-15T01:43:39;6.75;;;1.17;;
70455;SDS011;57916;51.996;5.180;2024-01-15T01:46:06;14.25;;;1.60;;
70455;SDS011;57916;51.996;5.180;2024-01-15T01:48:34;11.15;;;1.48;;
70455;SDS011;57916;51.996;5.180;2024-01-15T01:51:03;16.65;;;1.65;;
70455;SDS011;57916;51.996;5.180;2024-01-15T01:53:31;11.05;;;1.55;;
70455;SDS011;57916;51.996;5.180;2024-01-15T01:56:00;11.13;;;1.30;;
70455;SDS011;57916;51.996;5.180;2024-01-15T01:58:27;9.60;;;1.20;;
70455;SDS011;57916;51.996;5.180;2024-01-15T02:00:55;14.10;;;1.37;;
70455;SDS011;57916;51.996;5.180;2024-01-15T02:03:23;8.63;;;1.20;;
70455;SDS011;57916;51.996;5.180;2024-01-15T02:05:50;10.55;;;1.27;;
70455;SDS011;57916;51.996;5.180;2024-01-15T02:08:19;11.82;;;1.42;;
70455;SDS011;57916;51.996;5.180;2024-01-15T02:10:46;9.20;;;1.10;;
70455;SDS011;57916;51.996;5.180;2024-01-15T02:13:13;8.20;;;1.10;;
70455;SDS011;57916;51.996;5.180;2024-01-15T02:15:41;7.93;;;1.10;;
70455;SDS011;57916;51.996;5.180;2024-01-15T02:18:08;11.02;;;1.15;;
70455;SDS011;57916;51.996;5.180;2024-01-15T02:20:35;11.52;;;1.38;;
70455;SDS011;57916;51.996;5.180;2024-01-15T02:23:12;12.20;;;1.45;;
70455;SDS011;57916;51.996;5.180;2024-01-15T02:25:41;10.65;;;1.33;;
70455;SDS011;57916;51.996;5.180;2024-01-15T02:28:09;11.27;;;1.45;;
70455;SDS011;57916;51.996;5.180;2024-01-15T02:30:37;8.38;;;1.50;;
70455;SDS011;57916;51.996;5.180;2024-01-15T02:33:06;12.93;;;1.27;;
70455;SDS011;57916;51.996;5.180;2024-01-15T02:35:34;9.68;;;1.50;;
70455;SDS011;57916;51.996;5.180;2024-01-15T02:38:05;8.52;;;1.05;;
70455;SDS011;57916;51.996;5.180;2024-01-15T02:40:33;7.90;;;0.95;;
70455;SDS011;57916;51.996;5.180;2024-01-15T02:43:00;6.40;;;1.15;;
70455;SDS011;57916;51.996;5.180;2024-01-15T02:45:27;11.18;;;1.60;;
70455;SDS011;57916;51.996;5.180;2024-01-15T02:47:54;11.02;;;1.20;;
70455;SDS011;57916;51.996;5.180;2024-01-15T02:50:22;11.85;;;1.13;;
70455;SDS011;57916;51.996;5.180;2024-01-15T02:52:49;10.57;;;1.15;;
70455;SDS011;57916;51.996;5.180;2024-01-15T02:55:15;13.63;;;1.30;;
70455;SDS011;57916;51.996;5.180;2024-01-15T02:57:43;7.68;;;1.05;;
70455;SDS011;57916;51.996;5.180;2024-01-15T03:00:10;7.20;;;1.17;;
70455;SDS011;57916;51.996;5.180;2024-01-15T03:02:38;12.03;;;1.13;;
70455;SDS011;57916;51.996;5.180;2024-01-15T03:05:09;10.35;;;1.10;;
70455;SDS011;57916;51.996;5.180;2024-01-15T03:07:36;7.47;;;0.88;;
70455;SDS011;57916;51.996;5.180;2024-01-15T03:10:04;6.95;;;0.90;;
70455;SDS011;57916;51.996;5.180;2024-01-15T03:12:32;10.07;;;1.17;;
70455;SDS011;57916;51.996;5.180;2024-01-15T03:14:59;3.85;;;0.68;;
70455;SDS011;57916;51.996;5.180;2024-01-15T03:17:26;10.53;;;1.00;;
70455;SDS011;57916;51.996;5.180;2024-01-15T03:19:53;11.53;;;1.33;;
70455;SDS011;57916;51.996;5.180;2024-01-15T03:22:21;12.88;;;1.30;;
70455;SDS011;57916;51.996;5.180;2024-01-15T03:24:48;12.63;;;1.20;;
70455;SDS011;57916;51.996;5.180;2024-01-15T03:27:15;8.38;;;0.98;;
70455;SDS011;57916;51.996;5.180;2024-01-15T03:29:42;9.82;;;1.15;;
70455;SDS011;57916;51.996;5.180;2024-01-15T03:32:09;9.82;;;1.08;;
70455;SDS011;57916;51.996;5.180;2024-01-15T03:34:36;7.18;;;1.10;;
70455;SDS011;57916;51.996;5.180;2024-01-15T03:37:03;10.10;;;1.05;;
70455;SDS011;57916;51.996;5.180;2024-01-15T03:39:30;10.27;;;1.00;;
70455;SDS011;57916;51.996;5.180;2024-01-15T03:41:57;7.30;;;1.00;;
70455;SDS011;57916;51.996;5.180;2024-01-15T03:44:24;8.73;;;0.95;;
70455;SDS011;57916;51.996;5.180;2024-01-15T03:46:52;10.50;;;1.02;;
70455;SDS011;57916;51.996;5.180;2024-01-15T03:49:19;11.82;;;1.50;;
70455;SDS011;57916;51.996;5.180;2024-01-15T03:51:46;7.70;;;1.05;;
70455;SDS011;57916;51.996;5.180;2024-01-15T03:54:13;10.00;;;1.58;;
70455;SDS011;57916;51.996;5.180;2024-01-15T03:56:42;4.72;;;0.90;;
70455;SDS011;57916;51.996;5.180;2024-01-15T03:59:09;12.05;;;1.00;;
70455;SDS011;57916;51.996;5.180;2024-01-15T04:01:36;9.15;;;0.80;;
70455;SDS011;57916;51.996;5.180;2024-01-15T04:04:04;7.05;;;0.98;;
70455;SDS011;57916;51.996;5.180;2024-01-15T04:06:31;7.57;;;1.10;;
70455;SDS011;57916;51.996;5.180;2024-01-15T04:08:58;6.13;;;1.17;;
70455;SDS011;57916;51.996;5.180;2024-01-15T04:11:25;3.70;;;0.90;;
70455;SDS011;57916;51.996;5.180;2024-01-15T04:13:52;9.93;;;1.38;;
70455;SDS011;57916;51.996;5.180;2024-01-15T04:16:19;7.35;;;1.05;;
70455;SDS011;57916;51.996;5.180;2024-01-15T04:18:46;7.10;;;1.13;;
70455;SDS011;57916;51.996;5.180;2024-01-15T04:21:13;5.07;;;0.63;;
70455;SDS011;57916;51.996;5.180;2024-01-15T04:23:41;6.45;;;0.70;;
70455;SDS011;57916;51.996;5.180;2024-01-15T04:26:08;8.40;;;0.70;;
70455;SDS011;57916;51.996;5.180;2024-01-15T04:28:35;8.50;;;0.70;;
70455;SDS011;57916;51.996;5.180;2024-01-15T04:31:02;5.55;;;0.70;;
70455;SDS011;57916;51.996;5.180;2024-01-15T04:33:29;6.53;;;0.60;;
70455;SDS011;57916;51.996;5.180;2024-01-15T04:35:56;4.45;;;0.60;;
70455;SDS011;57916;51.996;5.180;2024-01-15T04:38:23;7.40;;;0.82;;
70455;SDS011;57916;51.996;5.180;2024-01-15T04:40:50;6.03;;;0.75;;
70455;SDS011;57916;51.996;5.180;2024-01-15T04:43:19;8.05;;;0.90;;
70455;SDS011;57916;51.996;5.180;2024-01-15T04:45:46;6.45;;;0.80;;
70455;SDS011;57916;51.996;5.180;2024-01-15T04:48:13;6.70;;;0.82;;
70455;SDS011;57916;51.996;5.180;2024-01-15T04:50:41;13.10;;;1.20;;
70455;SDS011;57916;51.996;5.180;2024-01-15T04:53:08;7.75;;;0.70;;
70455;SDS011;57916;51.996;5.180;2024-01-15T04:55:38;4.70;;;0.60;;
70455;SDS011;57916;51.996;5.180;2024-01-15T04:58:05;9.73;;;1.05;;
70455;SDS011;57916;51.996;5.180;2024-01-15T05:00:32;5.45;;;0.90;;
70455;SDS011;57916;51.996;5.180;2024-01-15T05:03:00;8.32;;;1.33;;
70455;SDS011;57916;51.996;5.180;2024-01-15T05:05:27;7.68;;;0.60;;
70455;SDS011;57916;51.996;5.180;2024-01-15T05:07:54;3.10;;;0.50;;
70455;SDS011;57916;51.996;5.180;2024-01-15T05:10:21;5.95;;;0.88;;
70455;SDS011;57916;51.996;5.180;2024-01-15T05:12:48;5.18;;;0.50;;
70455;SDS011;57916;51.996;5.180;2024-01-15T05:15:15;1.40;;;0.50;;
70455;SDS011;57916;51.996;5.180;2024-01-15T05:17:42;3.60;;;0.63;;
70455;SDS011;57916;51.996;5.180;2024-01-15T05:20:09;4.13;;;0.43;;
70455;SDS011;57916;51.996;5.180;2024-01-15T05:22:37;5.43;;;0.80;;
70455;SDS011;57916;51.996;5.180;2024-01-15T05:25:04;3.97;;;0.40;;
70455;SDS011;57916;51.996;5.180;2024-01-15T05:27:31;3.60;;;0.57;;
70455;SDS011;57916;51.996;5.180;2024-01-15T05:29:58;4.72;;;0.70;;
70455;SDS011;57916;51.996;5.180;2024-01-15T05:32:25;7.85;;;0.60;;
70455;SDS011;57916;51.996;5.180;2024-01-15T05:34:52;3.33;;;0.60;;
70455;SDS011;57916;51.996;5.180;2024-01-15T05:37:19;4.28;;;0.65;;
70455;SDS011;57916;51.996;5.180;2024-01-15T05:39:46;6.00;;;0.77;;
70455;SDS011;57916;51.996;5.180;2024-01-15T05:42:13;8.80;;;0.95;;
70455;SDS011;57916;51.996;5.180;2024-01-15T05:44:40;5.72;;;0.95;;
70455;SDS011;57916;51.996;5.180;2024-01-15T05:47:07;6.00;;;1.25;;
70455;SDS011;57916;51.996;5.180;2024-01-15T05:49:34;4.95;;;1.20;;
70455;SDS011;57916;51.996;5.180;2024-01-15T05:52:02;5.15;;;1.20;;
70455;SDS011;57916;51.996;5.180;2024-01-15T05:54:30;5.57;;;1.40;;
70455;SDS011;57916;51.996;5.180;2024-01-15T05:56:57;5.47;;;1.15;;
70455;SDS011;57916;51.996;5.180;2024-01-15T05:59:24;8.40;;;1.05;;
70455;SDS011;57916;51.996;5.180;2024-01-15T06:01:52;7.38;;;1.08;;
70455;SDS011;57916;51.996;5.180;2024-01-15T06:04:19;5.80;;;1.20;;
70455;SDS011;57916;51.996;5.180;2024-01-15T06:06:46;12.50;;;1.60;;
70455;SDS011;57916;51.996;5.180;2024-01-15T06:09:13;7.32;;;1.20;;
70455;SDS011;57916;51.996;5.180;2024-01-15T06:11:40;9.63;;;1.10;;
70455;SDS011;57916;51.996;5.180;2024-01-15T06:14:07;6.25;;;1.13;;
70455;SDS011;57916;51.996;5.180;2024-01-15T06:16:34;6.43;;;1.20;;
70455;SDS011;57916;51.996;5.180;2024-01-15T06:19:01;9.57;;;1.25;;
70455;SDS011;57916;51.996;5.180;2024-01-15T06:21:29;3.10;;;0.80;;
70455;SDS011;57916;51.996;5.180;2024-01-15T06:23:56;5.03;;;0.90;;
70455;SDS011;57916;51.996;5.180;2024-01-15T06:26:23;4.53;;;0.82;;
70455;SDS011;57916;51.996;5.180;2024-01-15T06:28:51;4.00;;;0.90;;
70455;SDS011;57916;51.996;5.180;2024-01-15T06:31:18;6.97;;;0.90;;
70455;SDS011;57916;51.996;5.180;2024-01-15T06:33:45;5.38;;;1.00;;
70455;SDS011;57916;51.996;5.180;2024-01-15T06:36:15;7.65;;;0.75;;
70455;SDS011;57916;51.996;5.180;2024-01-15T06:38:44;3.10;;;0.60;;
70455;SDS011;57916;51.996;5.180;2024-01-15T06:41:11;4.20;;;0.90;;
70455;SDS011;57916;51.996;5.180;2024-01-15T06:43:39;4.28;;;0.70;;
70455;SDS011;57916;51.996;5.180;2024-01-15T06:46:05;3.55;;;0.68;;
70455;SDS011;57916;51.996;5.180;2024-01-15T06:48:34;6.07;;;0.88;;
70455;SDS011;57916;51.996;5.180;2024-01-15T06:51:02;3.90;;;1.10;;
70455;SDS011;57916;51.996;5.180;2024-01-15T06:53:29;6.90;;;1.30;;
70455;SDS011;57916;51.996;5.180;2024-01-15T06:55:56;3.25;;;0.90;;
70455;SDS011;57916;51.996;5.180;2024-01-15T06:58:23;5.40;;;1.10;;
70455;SDS011;57916;51.996;5.180;2024-01-15T07:00:50;5.38;;;0.98;;
70455;SDS011;57916;51.996;5.180;2024-01-15T07:03:17;5.63;;;1.48;;
70455;SDS011;57916;51.996;5.180;2024-01-15T07:05:44;4.13;;;1.13;;
70455;SDS011;57916;51.996;5.180;2024-01-15T07:08:11;6.75;;;1.65;;
70455;SDS011;57916;51.996;5.180;2024-01-15T07:10:38;5.13;;;1.08;;
70455;SDS011;57916;51.996;5.180;2024-01-15T07:13:05;6.18;;;1.67;;
70455;SDS011;57916;51.996;5.180;2024-01-15T07:15:32;4.93;;;2.30;;
70455;SDS011;57916;51.996;5.180;2024-01-15T07:17:59;7.28;;;1.48;;
70455;SDS011;57916;51.996;5.180;2024-01-15T07:20:27;8.20;;;1.30;;
70455;SDS011;57916;51.996;5.180;2024-01-15T07:22:53;6.82;;;1.58;;
70455;SDS011;57916;51.996;5.180;2024-01-15T07:25:20;5.70;;;1.23;;
70455;SDS011;57916;51.996;5.180;2024-01-15T07:27:50;10.45;;;1.42;;
70455;SDS011;57916;51.996;5.180;2024-01-15T07:30:17;10.98;;;1.48;;
70455;SDS011;57916;51.996;5.180;2024-01-15T07:32:45;5.18;;;1.20;;
70455;SDS011;57916;51.996;5.180;2024-01-15T07:35:12;6.07;;;1.35;;
70455;SDS011;57916;51.996;5.180;2024-01-15T07:37:38;7.53;;;1.40;;
70455;SDS011;57916;51.996;5.180;2024-01-15T07:40:05;10.30;;;1.60;;
70455;SDS011;57916;51.996;5.180;2024-01-15T07:42:35;9.25;;;2.08;;
70455;SDS011;57916;51.996;5.180;2024-01-15T07:45:02;12.02;;;3.97;;
70455;SDS011;57916;51.996;5.180;2024-01-15T07:47:29;11.48;;;4.57;;
70455;SDS011;57916;51.996;5.180;2024-01-15T07:49:56;13.88;;;4.00;;
70455;SDS011;57916;51.996;5.180;2024-01-15T07:52:27;11.13;;;3.03;;
70455;SDS011;57916;51.996;5.180;2024-01-15T07:54:54;11.82;;;3.05;;
70455;SDS011;57916;51.996;5.180;2024-01-15T07:57:21;9.43;;;2.65;;
70455;SDS011;57916;51.996;5.180;2024-01-15T07:59:49;8.85;;;1.00;;
70455;SDS011;57916;51.996;5.180;2024-01-15T08:02:16;4.78;;;1.00;;
70455;SDS011;57916;51.996;5.180;2024-01-15T08:04:43;5.50;;;0.85;;
70455;SDS011;57916;51.996;5.180;2024-01-15T08:07:11;3.60;;;0.85;;
70455;SDS011;57916;51.996;5.180;2024-01-15T08:09:40;6.50;;;1.00;;
70455;SDS011;57916;51.996;5.180;2024-01-15T08:12:07;8.88;;;1.20;;
70455;SDS011;57916;51.996;5.180;2024-01-15T08:14:34;5.72;;;1.27;;
70455;SDS011;57916;51.996;5.180;2024-01-15T08:17:01;4.17;;;0.80;;
70455;SDS011;57916;51.996;5.180;2024-01-15T08:19:29;3.90;;;0.80;;
70455;SDS011;57916;51.996;5.180;2024-01-15T08:21:56;8.88;;;0.93;;
70455;SDS011;57916;51.996;5.180;2024-01-15T08:24:23;7.95;;;1.08;;
70455;SDS011;57916;51.996;5.180;2024-01-15T08:26:50;4.95;;;1.10;;
70455;SDS011;57916;51.996;5.180;2024-01-15T08:29:17;6.03;;;0.95;;
70455;SDS011;57916;51.996;5.180;2024-01-15T08:31:46;4.70;;;0.90;;
70455;SDS011;57916;51.996;5.180;2024-01-15T08:34:14;5.75;;;1.15;;
70455;SDS011;57916;51.996;5.180;2024-01-15T08:36:41;4.73;;;0.90;;
70455;SDS011;57916;51.996;5.180;2024-01-15T08:39:08;3.20;;;0.70;;
70455;SDS011;57916;51.996;5.180;2024-01-15T08:41:35;5.15;;;0.80;;
70455;SDS011;57916;51.996;5.180;2024-01-15T08:44:02;14.50;;;1.10;;
70455;SDS011;57916;51.996;5.180;2024-01-15T08:46:29;8.52;;;0.95;;
70455;SDS011;57916;51.996;5.180;2024-01-15T08:48:56;12.98;;;1.13;;
70455;SDS011;57916;51.996;5.180;2024-01-15T08:51:24;7.97;;;0.95;;
70455;SDS011;57916;51.996;5.180;2024-01-15T08:53:51;5.78;;;0.80;;
70455;SDS011;57916;51.996;5.180;2024-01-15T08:56:18;10.07;;;1.00;;
70455;SDS011;57916;51.996;5.180;2024-01-15T08:58:44;7.50;;;1.15;;
70455;SDS011;57916;51.996;5.180;2024-01-15T09:01:12;8.85;;;1.10;;
70455;SDS011;57916;51.996;5.180;2024-01-15T09:03:40;7.82;;;1.20;;
70455;SDS011;57916;51.996;5.180;2024-01-15T09:06:10;6.43;;;1.20;;
70455;SDS011;57916;51.996;5.180;2024-01-15T09:08:37;9.25;;;1.20;;
70455;SDS011;57916;51.996;5.180;2024-01-15T09:11:05;8.60;;;1.20;;
70455;SDS011;57916;51.996;5.180;2024-01-15T09:13:32;16.27;;;1.43;;
70455;SDS011;57916;51.996;5.180;2024-01-15T09:15:58;6.53;;;1.50;;
70455;SDS011;57916;51.996;5.180;2024-01-15T09:18:26;9.02;;;1.40;;
70455;SDS011;57916;51.996;5.180;2024-01-15T09:20:54;7.05;;;1.42;;
70455;SDS011;57916;51.996;5.180;2024-01-15T09:23:21;5.85;;;1.40;;
70455;SDS011;57916;51.996;5.180;2024-01-15T09:25:48;6.55;;;1.77;;
70455;SDS011;57916;51.996;5.180;2024-01-15T09:28:16;8.63;;;1.33;;
70455;SDS011;57916;51.996;5.180;2024-01-15T09:30:43;4.50;;;1.45;;
70455;SDS011;57916;51.996;5.180;2024-01-15T09:33:11;8.48;;;1.63;;
70455;SDS011;57916;51.996;5.180;2024-01-15T09:35:38;8.70;;;1.93;;
70455;SDS011;57916;51.996;5.180;2024-01-15T09:38:05;8.02;;;1.90;;
70455;SDS011;57916;51.996;5.180;2024-01-15T09:40:32;5.55;;;1.83;;
70455;SDS011;57916;51.996;5.180;2024-01-15T09:43:00;9.75;;;2.05;;
70455;SDS011;57916;51.996;5.180;2024-01-15T09:45:28;8.32;;;1.90;;
70455;SDS011;57916;51.996;5.180;2024-01-15T09:47:55;8.63;;;1.60;;
70455;SDS011;57916;51.996;5.180;2024-01-15T09:50:23;8.82;;;1.20;;
70455;SDS011;57916;51.996;5.180;2024-01-15T09:52:50;7.72;;;1.10;;
70455;SDS011;57916;51.996;5.180;2024-01-15T09:55:17;4.88;;;1.10;;
70455;SDS011;57916;51.996;5.180;2024-01-15T09:57:45;9.10;;;1.20;;
70455;SDS011;57916;51.996;5.180;2024-01-15T10:00:17;4.97;;;1.00;;
70455;SDS011;57916;51.996;5.180;2024-01-15T10:02:45;4.40;;;1.00;;
70455;SDS011;57916;51.996;5.180;2024-01-15T10:05:12;3.55;;;0.77;;
70455;SDS011;57916;51.996;5.180;2024-01-15T10:07:39;3.70;;;1.23;;
70455;SDS011;57916;51.996;5.180;2024-01-15T10:10:07;7.07;;;0.95;;
70455;SDS011;57916;51.996;5.180;2024-01-15T10:12:35;3.45;;;1.00;;
70455;SDS011;57916;51.996;5.180;2024-01-15T10:15:03;5.45;;;1.10;;
70455;SDS011;57916;51.996;5.180;2024-01-15T10:17:30;3.35;;;0.77;;
70455;SDS011;57916;51.996;5.180;2024-01-15T10:19:57;5.85;;;0.70;;
70455;SDS011;57916;51.996;5.180;2024-01-15T10:22:25;9.45;;;0.98;;
70455;SDS011;57916;51.996;5.180;2024-01-15T10:24:52;3.80;;;0.90;;
70455;SDS011;57916;51.996;5.180;2024-01-15T10:27:19;6.20;;;1.00;;
70455;SDS011;57916;51.996;5.180;2024-01-15T10:29:47;5.88;;;1.00;;
70455;SDS011;57916;51.996;5.180;2024-01-15T10:32:14;5.03;;;1.00;;
70455;SDS011;57916;51.996;5.180;2024-01-15T10:34:41;8.90;;;1.42;;
70455;SDS011;57916;51.996;5.180;2024-01-15T10:37:10;3.85;;;0.90;;
70455;SDS011;57916;51.996;5.180;2024-01-15T10:39:37;6.25;;;0.95;;
70455;SDS011;57916;51.996;5.180;2024-01-15T10:42:05;4.30;;;1.02;;
70455;SDS011;57916;51.996;5.180;2024-01-15T10:44:34;5.07;;;1.10;;
70455;SDS011;57916;51.996;5.180;2024-01-15T10:47:02;7.10;;;1.58;;
70455;SDS011;57916;51.996;5.180;2024-01-15T10:49:30;9.10;;;1.10;;
70455;SDS011;57916;51.996;5.180;2024-01-15T10:52:02;7.03;;;0.93;;
70455;SDS011;57916;51.996;5.180;2024-01-15T10:54:30;8.52;;;1.10;;
70455;SDS011;57916;51.996;5.180;2024-01-15T10:56:58;8.70;;;1.20;;
70455;SDS011;57916;51.996;5.180;2024-01-15T10:59:25;6.88;;;0.98;;
70455;SDS011;57916;51.996;5.180;2024-01-15T11:01:52;11.83;;;1.10;;
70455;SDS011;57916;51.996;5.180;2024-01-15T11:04:21;5.45;;;1.00;;
70455;SDS011;57916;51.996;5.180;2024-01-15T11:06:53;4.53;;;1.15;;
70455;SDS011;57916;51.996;5.180;2024-01-15T11:09:25;5.47;;;1.20;;
70455;SDS011;57916;51.996;5.180;2024-01-15T11:11:52;5.53;;;1.05;;
70455;SDS011;57916;51.996;5.180;2024-01-15T11:14:40;6.95;;;1.17;;
70455;SDS011;57916;51.996;5.180;2024-01-15T11:17:11;8.82;;;1.17;;
70455;SDS011;57916;51.996;5.180;2024-01-15T11:19:46;4.30;;;0.88;;
70455;SDS011;57916;51.996;5.180;2024-01-15T11:24:57;6.38;;;0.80;;
70455;SDS011;57916;51.996;5.180;2024-01-15T11:27:46;6.22;;;1.05;;
70455;SDS011;57916;51.996;5.180;2024-01-15T11:30:19;8.07;;;0.90;;
70455;SDS011;57916;51.996;5.180;2024-01-15T11:32:46;10.93;;;1.05;;
70455;SDS011;57916;51.996;5.180;2024-01-15T11:35:14;4.68;;;0.90;;
70455;SDS011;57916;51.996;5.180;2024-01-15T11:40:19;7.82;;;1.10;;
70455;SDS011;57916;51.996;5.180;2024-01-15T11:43:02;6.90;;;1.10;;
70455;SDS011;57916;51.996;5.180;2024-01-15T11:45:31;3.25;;;0.82;;
70455;SDS011;57916;51.996;5.180;2024-01-15T11:50:42;7.35;;;0.90;;
70455;SDS011;57916;51.996;5.180;2024-01-15T11:53:56;3.60;;;0.65;;
70455;SDS011;57916;51.996;5.180;2024-01-15T11:56:09;6.45;;;0.85;;
70455;SDS011;57916;51.996;5.180;2024-01-15T11:58:41;4.75;;;0.52;;
70455;SDS011;57916;51.996;5.180;2024-01-15T12:01:08;4.38;;;0.70;;
70455;SDS011;57916;51.996;5.180;2024-01-15T12:03:37;5.93;;;1.00;;
70455;SDS011;57916;51.996;5.180;2024-01-15T12:06:08;4.75;;;0.80;;
70455;SDS011;57916;51.996;5.180;2024-01-15T12:08:36;7.15;;;1.13;;
70455;SDS011;57916;51.996;5.180;2024-01-15T12:11:07;7.10;;;1.10;;
70455;SDS011;57916;51.996;5.180;2024-01-15T12:13:40;6.35;;;1.15;;
70455;SDS011;57916;51.996;5.180;2024-01-15T12:16:08;7.45;;;1.00;;
70455;SDS011;57916;51.996;5.180;2024-01-15T12:18:37;5.37;;;1.07;;
70455;SDS011;57916;51.996;5.180;2024-01-15T12:21:04;7.97;;;1.30;;
70455;SDS011;57916;51.996;5.180;2024-01-15T12:23:33;6.72;;;2.13;;
70455;SDS011;57916;51.996;5.180;2024-01-15T12:26:00;5.10;;;1.45;;
70455;SDS011;57916;51.996;5.180;2024-01-15T12:28:27;9.45;;;1.63;;
70455;SDS011;57916;51.996;5.180;2024-01-15T12:30:55;6.70;;;2.17;;
70455;SDS011;57916;51.996;5.180;2024-01-15T12:33:22;4.53;;;1.80;;
70455;SDS011;57916;51.996;5.180;2024-01-15T12:35:52;4.70;;;1.38;;
70455;SDS011;57916;51.996;5.180;2024-01-15T12:38:19;8.40;;;1.92;;
70455;SDS011;57916;51.996;5.180;2024-01-15T12:40:47;5.20;;;1.30;;
70455;SDS011;57916;51.996;5.180;2024-01-15T12:43:15;11.23;;;2.22;;
70455;SDS011;57916;51.996;5.180;2024-01-15T12:45:42;14.40;;;3.63;;
70455;SDS011;57916;51.996;5.180;2024-01-15T12:48:09;9.40;;;1.90;;
70455;SDS011;57916;51.996;5.180;2024-01-15T12:50:37;8.85;;;1.30;;
70455;SDS011;57916;51.996;5.180;2024-01-15T12:53:04;9.68;;;2.22;;
70455;SDS011;57916;51.996;5.180;2024-01-15T12:55:31;11.32;;;3.00;;
70455;SDS011;57916;51.996;5.180;2024-01-15T12:57:58;11.60;;;2.27;;
70455;SDS011;57916;51.996;5.180;2024-01-15T13:00:25;9.88;;;1.50;;
70455;SDS011;57916;51.996;5.180;2024-01-15T13:02:52;15.38;;;4.95;;
70455;SDS011;57916;51.996;5.180;2024-01-15T13:05:21;9.25;;;1.17;;
70455;SDS011;57916;51.996;5.180;2024-01-15T13:07:49;10.02;;;1.40;;
70455;SDS011;57916;51.996;5.180;2024-01-15T13:10:16;8.70;;;1.20;;
70455;SDS011;57916;51.996;5.180;2024-01-15T13:12:43;7.63;;;1.00;;
70455;SDS011;57916;51.996;5.180;2024-01-15T13:15:10;6.80;;;1.00;;
70455;SDS011;57916;51.996;5.180;2024-01-15T13:17:40;10.20;;;0.88;;
70455;SDS011;57916;51.996;5.180;2024-01-15T13:20:08;5.07;;;0.75;;
70455;SDS011;57916;51.996;5.180;2024-01-15T13:22:37;8.38;;;1.10;;
70455;SDS011;57916;51.996;5.180;2024-01-15T13:25:06;6.38;;;1.30;;
70455;SDS011;57916;51.996;5.180;2024-01-15T13:27:34;10.17;;;1.37;;
70455;SDS011;57916;51.996;5.180;2024-01-15T13:30:02;8.63;;;1.35;;
70455;SDS011;57916;51.996;5.180;2024-01-15T13:32:30;7.03;;;1.20;;
70455;SDS011;57916;51.996;5.180;2024-01-15T13:34:57;8.98;;;1.30;;
70455;SDS011;57916;51.996;5.180;2024-01-15T13:37:26;12.75;;;1.55;;
70455;SDS011;57916;51.996;5.180;2024-01-15T13:39:54;10.18;;;1.80;;
70455;SDS011;57916;51.996;5.180;2024-01-15T13:42:21;9.00;;;1.60;;
70455;SDS011;57916;51.996;5.180;2024-01-15T13:44:49;12.77;;;1.83;;
70455;SDS011;57916;51.996;5.180;2024-01-15T13:47:16;19.17;;;1.67;;
70455;SDS011;57916;51.996;5.180;2024-01-15T13:49:43;12.93;;;2.53;;
70455;SDS011;57916;51.996;5.180;2024-01-15T13:52:10;13.98;;;2.72;;
70455;SDS011;57916;51.996;5.180;2024-01-15T13:54:37;10.55;;;1.48;;
70455;SDS011;57916;51.996;5.180;2024-01-15T13:57:16;5.10;;;1.15;;
70455;SDS011;57916;51.996;5.180;2024-01-15T13:59:44;15.63;;;1.45;;
70455;SDS011;57916;51.996;5.180;2024-01-15T14:02:11;11.27;;;1.30;;
70455;SDS011;57916;51.996;5.180;2024-01-15T14:04:42;9.25;;;1.38;;
70455;SDS011;57916;51.996;5.180;2024-01-15T14:07:09;8.68;;;1.50;;
70455;SDS011;57916;51.996;5.180;2024-01-15T14:09:36;12.20;;;1.50;;
70455;SDS011;57916;51.996;5.180;2024-01-15T14:12:04;15.83;;;2.00;;
70455;SDS011;57916;51.996;5.180;2024-01-15T14:14:32;11.68;;;1.35;;
70455;SDS011;57916;51.996;5.180;2024-01-15T14:17:00;12.00;;;1.67;;
70455;SDS011;57916;51.996;5.180;2024-01-15T14:19:27;13.57;;;1.50;;
70455;SDS011;57916;51.996;5.180;2024-01-15T14:21:54;8.75;;;1.30;;
70455;SDS011;57916;51.996;5.180;2024-01-15T14:24:22;11.63;;;1.35;;
70455;SDS011;57916;51.996;5.180;2024-01-15T14:26:49;10.38;;;1.52;;
70455;SDS011;57916;51.996;5.180;2024-01-15T14:29:16;11.43;;;1.50;;
70455;SDS011;57916;51.996;5.180;2024-01-15T14:31:45;14.10;;;2.17;;
70455;SDS011;57916;51.996;5.180;2024-01-15T14:34:13;11.38;;;1.70;;
70455;SDS011;57916;51.996;5.180;2024-01-15T14:36:40;6.93;;;1.60;;
70455;SDS011;57916;51.996;5.180;2024-01-15T14:39:07;9.50;;;1.50;;
70455;SDS011;57916;51.996;5.180;2024-01-15T14:41:36;11.33;;;1.50;;
70455;SDS011;57916;51.996;5.180;2024-01-15T14:44:03;9.05;;;1.60;;
70455;SDS011;57916;51.996;5.180;2024-01-15T14:46:30;10.95;;;1.77;;
70455;SDS011;57916;51.996;5.180;2024-01-15T14:48:58;8.82;;;1.40;;
70455;SDS011;57916;51.996;5.180;2024-01-15T14:51:25;6.70;;;1.40;;
70455;SDS011;57916;51.996;5.180;2024-01-15T14:53:52;10.82;;;1.67;;